sensor_id;sensor_type;location;lat;lon;timestamp;temperature;humidity
14783;DHT22;7483;50.498;12.138;2022-11-11T00:00:41;8.00;99.90
14783;DHT22;7483;50.498;12.138;2022-11-11T00:03:30;8.00;99.90
14783;DHT22;7483;50.498;12.138;2022-11-11T00:06:17;7.90;99.90
14783;DHT22;7483;50.498;12.138;2022-11-11T00:09:04;7.90;99.90
14783;DHT22;7483;50.498;12.138;2022-11-11T00:11:51;7.90;99.90
14783;DHT22;7483;50.498;12.138;2022-11-11T00:14:38;7.80;99.90
14783;DHT22;7483;50.498;12.138;2022-11-11T00:17:24;7.80;99.90
14783;DHT22;7483;50.498;12.138;2022-11-11T00:20:30;7.80;99.90
14783;DHT22;7483;50.498;12.138;2022-11-11T00:23:35;7.80;99.90
14783;DHT22;7483;50.498;12.138;2022-11-11T00:26:35;7.80;99.90
14783;DHT22;7483;50.498;12.138;2022-11-11T00:29:25;7.80;99.90
14783;DHT22;7483;50.498;12.138;2022-11-11T00:32:11;7.80;99.90
14783;DHT22;7483;50.498;12.138;2022-11-11T00:35:13;7.80;99.90
14783;DHT22;7483;50.498;12.138;2022-11-11T00:38:19;7.80;99.90
14783;DHT22;7483;50.498;12.138;2022-11-11T00:41:24;7.80;99.90
14783;DHT22;7483;50.498;12.138;2022-11-11T00:44:11;7.80;99.90
14783;DHT22;7483;50.498;12.138;2022-11-11T00:46:59;7.80;99.90
14783;DHT22;7483;50.498;12.138;2022-11-11T00:50:00;7.80;99.90
14783;DHT22;7483;50.498;12.138;2022-11-11T00:53:09;7.80;99.90
14783;DHT22;7483;50.498;12.138;2022-11-11T00:55:58;7.80;99.90
14783;DHT22;7483;50.498;12.138;2022-11-11T00:58:45;7.80;99.90
14783;DHT22;7483;50.498;12.138;2022-11-11T01:01:32;7.80;99.90
14783;DHT22;7483;50.498;12.138;2022-11-11T01:04:21;7.80;99.90
14783;DHT22;7483;50.498;12.138;2022-11-11T01:07:08;7.80;99.90
14783;DHT22;7483;50.498;12.138;2022-11-11T01:09:54;7.80;99.90
14783;DHT22;7483;50.498;12.138;2022-11-11T01:12:42;7.70;99.90
14783;DHT22;7483;50.498;12.138;2022-11-11T01:15:32;7.80;99.90
14783;DHT22;7483;50.498;12.138;2022-11-11T01:18:22;7.80;99.90
14783;DHT22;7483;50.498;12.138;2022-11-11T01:21:12;7.80;99.90
14783;DHT22;7483;50.498;12.138;2022-11-11T01:24:02;7.80;99.90
14783;DHT22;7483;50.498;12.138;2022-11-11T01:26:49;7.80;99.90
14783;DHT22;7483;50.498;12.138;2022-11-11T01:29:37;7.80;99.90
14783;DHT22;7483;50.498;12.138;2022-11-11T01:32:24;7.80;99.90
14783;DHT22;7483;50.498;12.138;2022-11-11T01:35:11;7.70;99.90
14783;DHT22;7483;50.498;12.138;2022-11-11T01:37:58;7.80;99.90
14783;DHT22;7483;50.498;12.138;2022-11-11T01:40:46;7.70;99.90
14783;DHT22;7483;50.498;12.138;2022-11-11T01:43:34;7.90;99.90
14783;DHT22;7483;50.498;12.138;2022-11-11T01:46:27;7.70;99.90
14783;DHT22;7483;50.498;12.138;2022-11-11T01:49:24;7.60;99.90
14783;DHT22;7483;50.498;12.138;2022-11-11T01:52:17;7.40;99.90
14783;DHT22;7483;50.498;12.138;2022-11-11T01:55:11;7.30;99.90
14783;DHT22;7483;50.498;12.138;2022-11-11T01:58:03;7.10;99.90
14783;DHT22;7483;50.498;12.138;2022-11-11T02:00:54;7.00;99.90
14783;DHT22;7483;50.498;12.138;2022-11-11T02:03:45;7.10;99.90
14783;DHT22;7483;50.498;12.138;2022-11-11T02:06:50;7.10;99.90
14783;DHT22;7483;50.498;12.138;2022-11-11T02:09:42;7.10;99.90
14783;DHT22;7483;50.498;12.138;2022-11-11T02:12:32;7.10;99.90
14783;DHT22;7483;50.498;12.138;2022-11-11T02:15:37;7.10;99.90
14783;DHT22;7483;50.498;12.138;2022-11-11T02:18:24;7.10;99.90
14783;DHT22;7483;50.498;12.138;2022-11-11T02:21:17;7.20;99.90
14783;DHT22;7483;50.498;12.138;2022-11-11T02:24:13;7.20;99.90
14783;DHT22;7483;50.498;12.138;2022-11-11T02:27:02;7.20;99.90
14783;DHT22;7483;50.498;12.138;2022-11-11T02:29:54;7.20;99.90
14783;DHT22;7483;50.498;12.138;2022-11-11T02:32:43;7.20;99.90
14783;DHT22;7483;50.498;12.138;2022-11-11T02:35:34;7.20;99.90
14783;DHT22;7483;50.498;12.138;2022-11-11T02:38:23;7.20;99.90
14783;DHT22;7483;50.498;12.138;2022-11-11T02:41:12;7.10;99.90
14783;DHT22;7483;50.498;12.138;2022-11-11T02:44:17;7.20;99.90
14783;DHT22;7483;50.498;12.138;2022-11-11T02:47:04;7.20;99.90
14783;DHT22;7483;50.498;12.138;2022-11-11T02:49:50;7.10;99.90
14783;DHT22;7483;50.498;12.138;2022-11-11T02:52:38;7.20;99.90
14783;DHT22;7483;50.498;12.138;2022-11-11T02:55:24;7.20;99.90
14783;DHT22;7483;50.498;12.138;2022-11-11T02:58:12;7.10;99.90
14783;DHT22;7483;50.498;12.138;2022-11-11T03:01:00;7.20;99.90
14783;DHT22;7483;50.498;12.138;2022-11-11T03:03:47;7.20;99.90
14783;DHT22;7483;50.498;12.138;2022-11-11T03:06:34;7.20;99.90
14783;DHT22;7483;50.498;12.138;2022-11-11T03:09:21;7.10;99.90
14783;DHT22;7483;50.498;12.138;2022-11-11T03:12:07;7.10;99.90
14783;DHT22;7483;50.498;12.138;2022-11-11T03:14:55;7.10;99.90
14783;DHT22;7483;50.498;12.138;2022-11-11T03:17:42;7.10;99.90
14783;DHT22;7483;50.498;12.138;2022-11-11T03:20:28;7.00;99.90
14783;DHT22;7483;50.498;12.138;2022-11-11T03:23:33;7.00;99.90
14783;DHT22;7483;50.498;12.138;2022-11-11T03:26:19;7.00;99.90
14783;DHT22;7483;50.498;12.138;2022-11-11T03:29:06;6.80;99.90
14783;DHT22;7483;50.498;12.138;2022-11-11T03:31:55;6.80;99.90
14783;DHT22;7483;50.498;12.138;2022-11-11T03:34:41;6.70;99.90
14783;DHT22;7483;50.498;12.138;2022-11-11T03:37:28;6.70;99.90
14783;DHT22;7483;50.498;12.138;2022-11-11T03:40:29;6.70;99.90
14783;DHT22;7483;50.498;12.138;2022-11-11T03:43:18;6.80;99.90
14783;DHT22;7483;50.498;12.138;2022-11-11T03:46:06;6.70;99.90
14783;DHT22;7483;50.498;12.138;2022-11-11T03:48:54;6.80;99.90
14783;DHT22;7483;50.498;12.138;2022-11-11T03:51:41;6.70;99.90
14783;DHT22;7483;50.498;12.138;2022-11-11T03:54:28;6.70;99.90
14783;DHT22;7483;50.498;12.138;2022-11-11T03:57:15;6.80;99.90
14783;DHT22;7483;50.498;12.138;2022-11-11T04:00:19;6.70;99.90
14783;DHT22;7483;50.498;12.138;2022-11-11T04:03:10;6.70;99.90
14783;DHT22;7483;50.498;12.138;2022-11-11T04:06:17;6.70;99.90
14783;DHT22;7483;50.498;12.138;2022-11-11T04:09:21;6.70;99.90
14783;DHT22;7483;50.498;12.138;2022-11-11T04:12:26;6.80;99.90
14783;DHT22;7483;50.498;12.138;2022-11-11T04:15:15;6.70;99.90
14783;DHT22;7483;50.498;12.138;2022-11-11T04:18:19;6.70;99.90
14783;DHT22;7483;50.498;12.138;2022-11-11T04:21:28;6.70;99.90
14783;DHT22;7483;50.498;12.138;2022-11-11T04:24:29;6.70;99.90
14783;DHT22;7483;50.498;12.138;2022-11-11T04:27:33;6.70;99.90
14783;DHT22;7483;50.498;12.138;2022-11-11T04:30:20;6.70;99.90
14783;DHT22;7483;50.498;12.138;2022-11-11T04:33:06;6.70;99.90
14783;DHT22;7483;50.498;12.138;2022-11-11T04:35:53;6.70;99.90
14783;DHT22;7483;50.498;12.138;2022-11-11T04:38:41;6.60;99.90
14783;DHT22;7483;50.498;12.138;2022-11-11T04:41:45;6.70;99.90
14783;DHT22;7483;50.498;12.138;2022-11-11T04:44:52;6.70;99.90
14783;DHT22;7483;50.498;12.138;2022-11-11T04:47:58;6.70;99.90
14783;DHT22;7483;50.498;12.138;2022-11-11T04:50:45;6.70;99.90
14783;DHT22;7483;50.498;12.138;2022-11-11T04:53:32;6.70;99.90
14783;DHT22;7483;50.498;12.138;2022-11-11T04:56:20;6.60;99.90
14783;DHT22;7483;50.498;12.138;2022-11-11T04:59:25;6.70;99.90
14783;DHT22;7483;50.498;12.138;2022-11-11T05:02:11;6.60;99.90
14783;DHT22;7483;50.498;12.138;2022-11-11T05:05:16;6.70;99.90
14783;DHT22;7483;50.498;12.138;2022-11-11T05:08:03;6.70;99.90
14783;DHT22;7483;50.498;12.138;2022-11-11T05:11:07;6.70;99.90
14783;DHT22;7483;50.498;12.138;2022-11-11T05:13:56;6.60;99.90
14783;DHT22;7483;50.498;12.138;2022-11-11T05:17:01;6.60;99.90
14783;DHT22;7483;50.498;12.138;2022-11-11T05:20:08;6.50;99.90
14783;DHT22;7483;50.498;12.138;2022-11-11T05:23:09;6.40;99.90
14783;DHT22;7483;50.498;12.138;2022-11-11T05:25:56;6.40;99.90
14783;DHT22;7483;50.498;12.138;2022-11-11T05:28:42;6.40;99.90
14783;DHT22;7483;50.498;12.138;2022-11-11T05:31:30;6.40;99.90
14783;DHT22;7483;50.498;12.138;2022-11-11T05:34:17;6.40;99.90
14783;DHT22;7483;50.498;12.138;2022-11-11T05:37:03;6.30;99.90
14783;DHT22;7483;50.498;12.138;2022-11-11T05:39:51;6.30;99.90
14783;DHT22;7483;50.498;12.138;2022-11-11T05:42:40;6.30;99.90
14783;DHT22;7483;50.498;12.138;2022-11-11T05:45:36;6.30;99.90
14783;DHT22;7483;50.498;12.138;2022-11-11T05:48:24;6.30;99.90
14783;DHT22;7483;50.498;12.138;2022-11-11T05:51:11;6.30;99.90
14783;DHT22;7483;50.498;12.138;2022-11-11T05:54:12;6.30;99.90
14783;DHT22;7483;50.498;12.138;2022-11-11T05:57:00;6.40;99.90
14783;DHT22;7483;50.498;12.138;2022-11-11T05:59:48;6.40;99.90
14783;DHT22;7483;50.498;12.138;2022-11-11T06:02:34;6.40;99.90
14783;DHT22;7483;50.498;12.138;2022-11-11T06:05:23;6.40;99.90
14783;DHT22;7483;50.498;12.138;2022-11-11T06:08:10;6.40;99.90
14783;DHT22;7483;50.498;12.138;2022-11-11T06:10:57;6.50;99.90
14783;DHT22;7483;50.498;12.138;2022-11-11T06:13:43;6.50;99.90
14783;DHT22;7483;50.498;12.138;2022-11-11T06:16:31;6.50;99.90
14783;DHT22;7483;50.498;12.138;2022-11-11T06:19:17;6.50;99.90
14783;DHT22;7483;50.498;12.138;2022-11-11T06:22:06;6.60;99.90
14783;DHT22;7483;50.498;12.138;2022-11-11T06:24:52;6.50;99.90
14783;DHT22;7483;50.498;12.138;2022-11-11T06:27:58;6.50;99.90
14783;DHT22;7483;50.498;12.138;2022-11-11T06:30:45;6.50;99.90
14783;DHT22;7483;50.498;12.138;2022-11-11T06:33:36;6.60;99.90
14783;DHT22;7483;50.498;12.138;2022-11-11T06:36:23;6.60;99.90
14783;DHT22;7483;50.498;12.138;2022-11-11T06:39:12;6.60;99.90
14783;DHT22;7483;50.498;12.138;2022-11-11T06:41:58;6.60;99.90
14783;DHT22;7483;50.498;12.138;2022-11-11T06:44:45;6.60;99.90
14783;DHT22;7483;50.498;12.138;2022-11-11T06:47:32;6.60;99.90
14783;DHT22;7483;50.498;12.138;2022-11-11T06:50:19;6.70;99.90
14783;DHT22;7483;50.498;12.138;2022-11-11T06:53:08;6.70;99.90
14783;DHT22;7483;50.498;12.138;2022-11-11T06:55:57;6.70;99.90
14783;DHT22;7483;50.498;12.138;2022-11-11T06:58:44;6.80;99.90
14783;DHT22;7483;50.498;12.138;2022-11-11T07:01:31;6.80;99.90
14783;DHT22;7483;50.498;12.138;2022-11-11T07:04:18;6.80;99.90
14783;DHT22;7483;50.498;12.138;2022-11-11T07:07:05;6.80;99.90
14783;DHT22;7483;50.498;12.138;2022-11-11T07:09:52;6.80;99.90
14783;DHT22;7483;50.498;12.138;2022-11-11T07:12:41;6.80;99.90
14783;DHT22;7483;50.498;12.138;2022-11-11T07:15:27;6.80;99.90
14783;DHT22;7483;50.498;12.138;2022-11-11T07:18:14;6.80;99.90
14783;DHT22;7483;50.498;12.138;2022-11-11T07:21:01;6.90;99.90
14783;DHT22;7483;50.498;12.138;2022-11-11T07:23:48;6.90;99.90
14783;DHT22;7483;50.498;12.138;2022-11-11T07:26:34;7.00;99.90
14783;DHT22;7483;50.498;12.138;2022-11-11T07:29:23;7.10;99.90
14783;DHT22;7483;50.498;12.138;2022-11-11T07:32:09;7.20;99.90
14783;DHT22;7483;50.498;12.138;2022-11-11T07:34:56;7.30;99.90
14783;DHT22;7483;50.498;12.138;2022-11-11T07:37:44;7.30;99.90
14783;DHT22;7483;50.498;12.138;2022-11-11T07:40:31;7.40;99.90
14783;DHT22;7483;50.498;12.138;2022-11-11T07:43:17;7.50;99.90
14783;DHT22;7483;50.498;12.138;2022-11-11T07:46:06;7.50;99.90
14783;DHT22;7483;50.498;12.138;2022-11-11T07:48:52;7.60;99.90
14783;DHT22;7483;50.498;12.138;2022-11-11T07:51:39;7.70;99.90
14783;DHT22;7483;50.498;12.138;2022-11-11T07:54:26;7.70;99.90
14783;DHT22;7483;50.498;12.138;2022-11-11T07:57:13;7.80;99.90
14783;DHT22;7483;50.498;12.138;2022-11-11T07:59:59;7.90;99.90
14783;DHT22;7483;50.498;12.138;2022-11-11T08:02:48;8.00;99.90
14783;DHT22;7483;50.498;12.138;2022-11-11T08:05:39;8.10;99.90
14783;DHT22;7483;50.498;12.138;2022-11-11T08:08:26;8.20;99.90
14783;DHT22;7483;50.498;12.138;2022-11-11T08:11:14;8.30;99.90
14783;DHT22;7483;50.498;12.138;2022-11-11T08:14:02;8.40;99.90
14783;DHT22;7483;50.498;12.138;2022-11-11T08:16:48;8.40;99.90
14783;DHT22;7483;50.498;12.138;2022-11-11T08:19:36;8.50;99.90
14783;DHT22;7483;50.498;12.138;2022-11-11T08:22:23;8.60;99.90
14783;DHT22;7483;50.498;12.138;2022-11-11T08:25:11;8.60;99.90
14783;DHT22;7483;50.498;12.138;2022-11-11T08:28:02;8.70;99.90
14783;DHT22;7483;50.498;12.138;2022-11-11T08:30:50;8.70;99.90
14783;DHT22;7483;50.498;12.138;2022-11-11T08:33:37;8.70;99.90
14783;DHT22;7483;50.498;12.138;2022-11-11T08:36:25;8.70;99.90
14783;DHT22;7483;50.498;12.138;2022-11-11T08:39:12;8.80;99.90
14783;DHT22;7483;50.498;12.138;2022-11-11T08:41:59;8.80;99.90
14783;DHT22;7483;50.498;12.138;2022-11-11T08:44:46;8.90;99.90
14783;DHT22;7483;50.498;12.138;2022-11-11T08:47:33;8.90;99.90
14783;DHT22;7483;50.498;12.138;2022-11-11T08:50:19;9.00;99.90
14783;DHT22;7483;50.498;12.138;2022-11-11T08:53:08;9.10;99.90
14783;DHT22;7483;50.498;12.138;2022-11-11T08:55:55;9.20;99.90
14783;DHT22;7483;50.498;12.138;2022-11-11T08:58:43;9.30;99.90
14783;DHT22;7483;50.498;12.138;2022-11-11T09:01:30;9.40;99.90
14783;DHT22;7483;50.498;12.138;2022-11-11T09:04:17;9.50;99.90
14783;DHT22;7483;50.498;12.138;2022-11-11T09:07:24;9.60;99.90
14783;DHT22;7483;50.498;12.138;2022-11-11T09:10:13;9.70;99.90
14783;DHT22;7483;50.498;12.138;2022-11-11T09:13:00;9.90;99.90
14783;DHT22;7483;50.498;12.138;2022-11-11T09:15:47;10.00;99.90
14783;DHT22;7483;50.498;12.138;2022-11-11T09:18:34;10.10;99.90
14783;DHT22;7483;50.498;12.138;2022-11-11T09:21:20;10.20;99.90
14783;DHT22;7483;50.498;12.138;2022-11-11T09:24:08;10.30;99.90
14783;DHT22;7483;50.498;12.138;2022-11-11T09:26:56;10.40;99.90
14783;DHT22;7483;50.498;12.138;2022-11-11T09:29:43;10.50;99.90
14783;DHT22;7483;50.498;12.138;2022-11-11T09:32:30;10.60;99.90
14783;DHT22;7483;50.498;12.138;2022-11-11T09:35:17;10.70;99.90
14783;DHT22;7483;50.498;12.138;2022-11-11T09:38:04;10.80;99.90
14783;DHT22;7483;50.498;12.138;2022-11-11T09:41:08;10.80;99.90
14783;DHT22;7483;50.498;12.138;2022-11-11T09:44:08;10.80;99.90
14783;DHT22;7483;50.498;12.138;2022-11-11T09:47:12;10.90;99.90
14783;DHT22;7483;50.498;12.138;2022-11-11T09:50:07;10.90;99.90
14783;DHT22;7483;50.498;12.138;2022-11-11T09:53:00;11.00;99.90
14783;DHT22;7483;50.498;12.138;2022-11-11T09:56:00;11.00;99.90
14783;DHT22;7483;50.498;12.138;2022-11-11T09:59:16;11.10;99.90
14783;DHT22;7483;50.498;12.138;2022-11-11T10:02:13;11.10;99.90
14783;DHT22;7483;50.498;12.138;2022-11-11T10:05:08;11.10;99.90
14783;DHT22;7483;50.498;12.138;2022-11-11T10:08:00;11.10;99.90
14783;DHT22;7483;50.498;12.138;2022-11-11T10:10:53;11.00;99.90
14783;DHT22;7483;50.498;12.138;2022-11-11T10:13:40;11.10;99.90
14783;DHT22;7483;50.498;12.138;2022-11-11T10:16:39;11.10;99.90
14783;DHT22;7483;50.498;12.138;2022-11-11T10:19:37;11.10;99.90
14783;DHT22;7483;50.498;12.138;2022-11-11T10:22:38;11.20;99.90
14783;DHT22;7483;50.498;12.138;2022-11-11T10:25:27;11.30;99.90
14783;DHT22;7483;50.498;12.138;2022-11-11T10:28:16;11.40;99.90
14783;DHT22;7483;50.498;12.138;2022-11-11T10:31:11;11.40;99.90
14783;DHT22;7483;50.498;12.138;2022-11-11T10:34:08;11.50;99.90
14783;DHT22;7483;50.498;12.138;2022-11-11T10:36:58;11.60;99.90
14783;DHT22;7483;50.498;12.138;2022-11-11T10:39:57;11.60;99.90
14783;DHT22;7483;50.498;12.138;2022-11-11T10:42:47;11.80;99.90
14783;DHT22;7483;50.498;12.138;2022-11-11T10:45:40;11.90;99.90
14783;DHT22;7483;50.498;12.138;2022-11-11T10:48:40;12.10;99.90
14783;DHT22;7483;50.498;12.138;2022-11-11T10:51:42;12.30;99.90
14783;DHT22;7483;50.498;12.138;2022-11-11T10:54:38;12.40;99.90
14783;DHT22;7483;50.498;12.138;2022-11-11T10:57:32;12.50;99.90
14783;DHT22;7483;50.498;12.138;2022-11-11T11:00:22;12.60;99.90
14783;DHT22;7483;50.498;12.138;2022-11-11T11:03:13;12.70;99.90
14783;DHT22;7483;50.498;12.138;2022-11-11T11:06:10;12.80;99.90
14783;DHT22;7483;50.498;12.138;2022-11-11T11:09:10;13.00;99.90
14783;DHT22;7483;50.498;12.138;2022-11-11T11:12:05;13.10;99.90
14783;DHT22;7483;50.498;12.138;2022-11-11T11:15:03;13.20;99.90
14783;DHT22;7483;50.498;12.138;2022-11-11T11:17:59;13.30;99.90
14783;DHT22;7483;50.498;12.138;2022-11-11T11:20:55;13.40;99.90
14783;DHT22;7483;50.498;12.138;2022-11-11T11:23:43;13.60;99.90
14783;DHT22;7483;50.498;12.138;2022-11-11T11:26:44;13.70;99.90
14783;DHT22;7483;50.498;12.138;2022-11-11T11:29:33;13.70;99.90
14783;DHT22;7483;50.498;12.138;2022-11-11T11:32:27;13.80;99.90
14783;DHT22;7483;50.498;12.138;2022-11-11T11:35:33;13.90;99.90
14783;DHT22;7483;50.498;12.138;2022-11-11T11:38:39;13.90;99.90
14783;DHT22;7483;50.498;12.138;2022-11-11T11:41:38;14.10;99.90
14783;DHT22;7483;50.498;12.138;2022-11-11T11:44:28;14.30;99.90
14783;DHT22;7483;50.498;12.138;2022-11-11T11:47:28;14.70;99.90
14783;DHT22;7483;50.498;12.138;2022-11-11T11:50:35;14.80;99.90
14783;DHT22;7483;50.498;12.138;2022-11-11T11:53:37;15.20;99.90
14783;DHT22;7483;50.498;12.138;2022-11-11T11:56:37;15.70;99.90
14783;DHT22;7483;50.498;12.138;2022-11-11T11:59:32;16.30;99.90
14783;DHT22;7483;50.498;12.138;2022-11-11T12:02:43;16.00;99.90
14783;DHT22;7483;50.498;12.138;2022-11-11T12:05:41;15.50;99.90
14783;DHT22;7483;50.498;12.138;2022-11-11T12:08:46;15.40;99.90
14783;DHT22;7483;50.498;12.138;2022-11-11T12:11:50;15.40;99.90
14783;DHT22;7483;50.498;12.138;2022-11-11T12:14:54;16.50;99.90
14783;DHT22;7483;50.498;12.138;2022-11-11T12:17:56;17.60;99.90
14783;DHT22;7483;50.498;12.138;2022-11-11T12:20:58;18.50;99.90
14783;DHT22;7483;50.498;12.138;2022-11-11T12:23:57;18.90;99.90
14783;DHT22;7483;50.498;12.138;2022-11-11T12:27:00;19.30;99.90
14783;DHT22;7483;50.498;12.138;2022-11-11T12:30:03;18.90;99.90
14783;DHT22;7483;50.498;12.138;2022-11-11T12:33:19;18.60;99.90
14783;DHT22;7483;50.498;12.138;2022-11-11T12:36:34;18.20;99.90
14783;DHT22;7483;50.498;12.138;2022-11-11T12:39:40;17.60;99.90
14783;DHT22;7483;50.498;12.138;2022-11-11T12:42:45;17.20;99.90
14783;DHT22;7483;50.498;12.138;2022-11-11T12:45:47;17.20;99.90
14783;DHT22;7483;50.498;12.138;2022-11-11T12:48:47;16.80;99.90
14783;DHT22;7483;50.498;12.138;2022-11-11T12:51:52;16.50;99.90
14783;DHT22;7483;50.498;12.138;2022-11-11T12:54:51;16.30;99.90
14783;DHT22;7483;50.498;12.138;2022-11-11T12:58:09;16.40;99.90
14783;DHT22;7483;50.498;12.138;2022-11-11T13:01:12;16.60;99.90
14783;DHT22;7483;50.498;12.138;2022-11-11T13:04:27;16.80;99.90
14783;DHT22;7483;50.498;12.138;2022-11-11T13:11:01;16.10;99.90
14783;DHT22;7483;50.498;12.138;2022-11-11T13:14:07;15.50;99.90
14783;DHT22;7483;50.498;12.138;2022-11-11T13:17:10;15.30;99.90
14783;DHT22;7483;50.498;12.138;2022-11-11T13:20:01;15.20;99.90
14783;DHT22;7483;50.498;12.138;2022-11-11T13:22:50;15.30;99.90
14783;DHT22;7483;50.498;12.138;2022-11-11T13:25:40;15.40;99.90
14783;DHT22;7483;50.498;12.138;2022-11-11T13:28:40;15.80;99.90
14783;DHT22;7483;50.498;12.138;2022-11-11T13:31:34;16.10;99.90
14783;DHT22;7483;50.498;12.138;2022-11-11T13:34:24;15.80;99.90
14783;DHT22;7483;50.498;12.138;2022-11-11T13:37:23;15.90;99.90
14783;DHT22;7483;50.498;12.138;2022-11-11T13:40:27;15.50;99.90
14783;DHT22;7483;50.498;12.138;2022-11-11T13:43:22;15.40;99.90
14783;DHT22;7483;50.498;12.138;2022-11-11T13:46:34;15.10;99.90
14783;DHT22;7483;50.498;12.138;2022-11-11T13:49:27;15.00;99.90
14783;DHT22;7483;50.498;12.138;2022-11-11T13:52:20;14.80;99.90
14783;DHT22;7483;50.498;12.138;2022-11-11T13:55:24;14.70;99.90
14783;DHT22;7483;50.498;12.138;2022-11-11T13:58:21;14.60;99.90
14783;DHT22;7483;50.498;12.138;2022-11-11T14:01:11;14.60;99.90
14783;DHT22;7483;50.498;12.138;2022-11-11T14:04:00;14.70;99.90
14783;DHT22;7483;50.498;12.138;2022-11-11T14:06:52;14.60;99.90
14783;DHT22;7483;50.498;12.138;2022-11-11T14:09:57;14.50;99.90
14783;DHT22;7483;50.498;12.138;2022-11-11T14:12:48;14.60;99.90
14783;DHT22;7483;50.498;12.138;2022-11-11T14:15:44;14.40;99.90
14783;DHT22;7483;50.498;12.138;2022-11-11T14:18:36;14.30;99.90
14783;DHT22;7483;50.498;12.138;2022-11-11T14:21:46;14.20;99.90
14783;DHT22;7483;50.498;12.138;2022-11-11T14:24:43;14.10;99.90
14783;DHT22;7483;50.498;12.138;2022-11-11T14:27:31;14.10;99.90
14783;DHT22;7483;50.498;12.138;2022-11-11T14:30:28;13.90;99.90
14783;DHT22;7483;50.498;12.138;2022-11-11T14:33:43;13.90;99.90
14783;DHT22;7483;50.498;12.138;2022-11-11T14:36:41;13.90;99.90
14783;DHT22;7483;50.498;12.138;2022-11-11T14:39:36;13.90;99.90
14783;DHT22;7483;50.498;12.138;2022-11-11T14:42:44;13.90;99.90
14783;DHT22;7483;50.498;12.138;2022-11-11T14:46:03;13.90;99.90
14783;DHT22;7483;50.498;12.138;2022-11-11T14:49:01;13.80;99.90
14783;DHT22;7483;50.498;12.138;2022-11-11T14:51:58;13.70;99.90
14783;DHT22;7483;50.498;12.138;2022-11-11T14:54:52;13.60;99.90
14783;DHT22;7483;50.498;12.138;2022-11-11T14:57:46;13.50;99.90
14783;DHT22;7483;50.498;12.138;2022-11-11T15:00:43;13.40;99.90
14783;DHT22;7483;50.498;12.138;2022-11-11T15:03:36;13.30;99.90
14783;DHT22;7483;50.498;12.138;2022-11-11T15:06:29;13.10;99.90
14783;DHT22;7483;50.498;12.138;2022-11-11T15:09:47;13.00;99.90
14783;DHT22;7483;50.498;12.138;2022-11-11T15:12:59;12.90;99.90
14783;DHT22;7483;50.498;12.138;2022-11-11T15:16:04;12.90;99.90
14783;DHT22;7483;50.498;12.138;2022-11-11T15:19:23;12.80;99.90
14783;DHT22;7483;50.498;12.138;2022-11-11T15:22:40;12.70;99.90
14783;DHT22;7483;50.498;12.138;2022-11-11T15:25:47;12.70;99.90
14783;DHT22;7483;50.498;12.138;2022-11-11T15:28:57;12.60;99.90
14783;DHT22;7483;50.498;12.138;2022-11-11T15:31:58;12.50;99.90
14783;DHT22;7483;50.498;12.138;2022-11-11T15:35:07;12.50;99.90
14783;DHT22;7483;50.498;12.138;2022-11-11T15:38:05;12.60;99.90
14783;DHT22;7483;50.498;12.138;2022-11-11T15:40:58;12.40;99.90
14783;DHT22;7483;50.498;12.138;2022-11-11T15:43:48;12.40;99.90
14783;DHT22;7483;50.498;12.138;2022-11-11T15:46:40;12.30;99.90
14783;DHT22;7483;50.498;12.138;2022-11-11T15:49:42;12.20;99.90
14783;DHT22;7483;50.498;12.138;2022-11-11T15:52:32;12.20;99.90
14783;DHT22;7483;50.498;12.138;2022-11-11T15:55:22;12.20;99.90
14783;DHT22;7483;50.498;12.138;2022-11-11T15:58:14;12.20;99.90
14783;DHT22;7483;50.498;12.138;2022-11-11T16:01:06;12.00;99.90
14783;DHT22;7483;50.498;12.138;2022-11-11T16:03:53;12.10;99.90
14783;DHT22;7483;50.498;12.138;2022-11-11T16:06:41;12.00;99.90
14783;DHT22;7483;50.498;12.138;2022-11-11T16:09:29;11.90;99.90
14783;DHT22;7483;50.498;12.138;2022-11-11T16:12:21;11.90;99.90
14783;DHT22;7483;50.498;12.138;2022-11-11T16:15:18;11.90;99.90
14783;DHT22;7483;50.498;12.138;2022-11-11T16:18:14;11.90;99.90
14783;DHT22;7483;50.498;12.138;2022-11-11T16:21:06;11.80;99.90
14783;DHT22;7483;50.498;12.138;2022-11-11T16:23:57;11.80;99.90
14783;DHT22;7483;50.498;12.138;2022-11-11T16:26:45;11.70;99.90
14783;DHT22;7483;50.498;12.138;2022-11-11T16:29:34;11.70;99.90
14783;DHT22;7483;50.498;12.138;2022-11-11T16:32:33;11.70;99.90
14783;DHT22;7483;50.498;12.138;2022-11-11T16:35:25;11.70;99.90
14783;DHT22;7483;50.498;12.138;2022-11-11T16:38:29;11.60;99.90
14783;DHT22;7483;50.498;12.138;2022-11-11T16:41:25;11.60;99.90
14783;DHT22;7483;50.498;12.138;2022-11-11T16:44:32;11.50;99.90
14783;DHT22;7483;50.498;12.138;2022-11-11T16:47:47;11.50;99.90
14783;DHT22;7483;50.498;12.138;2022-11-11T16:50:51;11.50;99.90
14783;DHT22;7483;50.498;12.138;2022-11-11T16:53:43;11.50;99.90
14783;DHT22;7483;50.498;12.138;2022-11-11T16:56:35;11.30;99.90
14783;DHT22;7483;50.498;12.138;2022-11-11T16:59:25;11.30;99.90
14783;DHT22;7483;50.498;12.138;2022-11-11T17:02:22;11.30;99.90
14783;DHT22;7483;50.498;12.138;2022-11-11T17:05:10;11.30;99.90
14783;DHT22;7483;50.498;12.138;2022-11-11T17:07:58;11.30;99.90
14783;DHT22;7483;50.498;12.138;2022-11-11T17:10:45;11.20;99.90
14783;DHT22;7483;50.498;12.138;2022-11-11T17:13:33;11.00;99.90
14783;DHT22;7483;50.498;12.138;2022-11-11T17:16:27;11.00;99.90
14783;DHT22;7483;50.498;12.138;2022-11-11T17:19:13;10.90;99.90
14783;DHT22;7483;50.498;12.138;2022-11-11T17:22:05;10.90;99.90
14783;DHT22;7483;50.498;12.138;2022-11-11T17:24:55;10.90;99.90
14783;DHT22;7483;50.498;12.138;2022-11-11T17:27:41;10.90;99.90
14783;DHT22;7483;50.498;12.138;2022-11-11T17:30:29;10.90;99.90
14783;DHT22;7483;50.498;12.138;2022-11-11T17:33:15;10.90;99.90
14783;DHT22;7483;50.498;12.138;2022-11-11T17:36:03;10.90;99.90
14783;DHT22;7483;50.498;12.138;2022-11-11T17:38:50;10.90;99.90
14783;DHT22;7483;50.498;12.138;2022-11-11T17:41:38;10.90;99.90
14783;DHT22;7483;50.498;12.138;2022-11-11T17:44:25;10.90;99.90
14783;DHT22;7483;50.498;12.138;2022-11-11T17:47:12;10.90;99.90
14783;DHT22;7483;50.498;12.138;2022-11-11T17:49:58;10.80;99.90
14783;DHT22;7483;50.498;12.138;2022-11-11T17:52:45;10.70;99.90
14783;DHT22;7483;50.498;12.138;2022-11-11T17:55:33;10.70;99.90
14783;DHT22;7483;50.498;12.138;2022-11-11T17:58:21;10.70;99.90
14783;DHT22;7483;50.498;12.138;2022-11-11T18:01:10;10.70;99.90
14783;DHT22;7483;50.498;12.138;2022-11-11T18:03:59;10.70;99.90
14783;DHT22;7483;50.498;12.138;2022-11-11T18:06:48;10.70;99.90
14783;DHT22;7483;50.498;12.138;2022-11-11T18:09:35;10.70;99.90
14783;DHT22;7483;50.498;12.138;2022-11-11T18:12:22;10.60;99.90
14783;DHT22;7483;50.498;12.138;2022-11-11T18:15:10;10.50;99.90
14783;DHT22;7483;50.498;12.138;2022-11-11T18:17:58;10.40;99.90
14783;DHT22;7483;50.498;12.138;2022-11-11T18:20:44;10.40;99.90
14783;DHT22;7483;50.498;12.138;2022-11-11T18:23:32;10.30;99.90
14783;DHT22;7483;50.498;12.138;2022-11-11T18:26:20;10.30;99.90